sensor_id;sensor_type;location;lat;lon;timestamp;P1;durP1;ratioP1;P2;durP2;ratioP2
46322;SDS011;32044;52.386;13.278;2022-10-16T00:01:30;1.73;;;1.63;;
46322;SDS011;32044;52.386;13.278;2022-10-16T00:03:56;4.45;;;1.88;;
46322;SDS011;32044;52.386;13.278;2022-10-16T00:06:23;2.10;;;1.90;;
46322;SDS011;32044;52.386;13.278;2022-10-16T00:08:49;1.83;;;1.60;;
46322;SDS011;32044;52.386;13.278;2022-10-16T00:11:16;2.15;;;1.85;;
46322;SDS011;32044;52.386;13.278;2022-10-16T00:13:43;2.88;;;2.00;;
46322;SDS011;32044;52.386;13.278;2022-10-16T00:16:10;1.88;;;1.77;;
46322;SDS011;32044;52.386;13.278;2022-10-16T00:18:35;2.63;;;1.80;;
46322;SDS011;32044;52.386;13.278;2022-10-16T00:21:06;1.70;;;1.60;;
46322;SDS011;32044;52.386;13.278;2022-10-16T00:23:33;3.38;;;2.00;;
46322;SDS011;32044;52.386;13.278;2022-10-16T00:26:00;3.15;;;1.90;;
46322;SDS011;32044;52.386;13.278;2022-10-16T00:28:28;3.30;;;1.73;;
46322;SDS011;32044;52.386;13.278;2022-10-16T00:30:54;2.00;;;1.45;;
46322;SDS011;32044;52.386;13.278;2022-10-16T00:33:19;3.58;;;1.60;;
46322;SDS011;32044;52.386;13.278;2022-10-16T00:35:45;2.70;;;1.73;;
46322;SDS011;32044;52.386;13.278;2022-10-16T00:38:10;2.85;;;1.90;;
46322;SDS011;32044;52.386;13.278;2022-10-16T00:40:35;2.50;;;1.75;;
46322;SDS011;32044;52.386;13.278;2022-10-16T00:43:01;3.85;;;1.75;;
46322;SDS011;32044;52.386;13.278;2022-10-16T00:45:26;4.47;;;1.60;;
46322;SDS011;32044;52.386;13.278;2022-10-16T00:47:52;2.72;;;1.73;;
46322;SDS011;32044;52.386;13.278;2022-10-16T00:50:29;1.90;;;1.55;;
46322;SDS011;32044;52.386;13.278;2022-10-16T00:52:57;2.45;;;1.80;;
46322;SDS011;32044;52.386;13.278;2022-10-16T00:55:23;4.13;;;2.05;;
46322;SDS011;32044;52.386;13.278;2022-10-16T00:57:49;1.92;;;1.75;;
46322;SDS011;32044;52.386;13.278;2022-10-16T01:00:19;2.80;;;1.60;;
46322;SDS011;32044;52.386;13.278;2022-10-16T01:03:00;2.30;;;1.80;;
46322;SDS011;32044;52.386;13.278;2022-10-16T01:05:30;3.72;;;1.85;;
46322;SDS011;32044;52.386;13.278;2022-10-16T01:12:59;3.67;;;1.52;;
46322;SDS011;32044;52.386;13.278;2022-10-16T01:15:27;3.88;;;1.70;;
46322;SDS011;32044;52.386;13.278;2022-10-16T01:18:20;2.22;;;1.83;;
46322;SDS011;32044;52.386;13.278;2022-10-16T01:20:54;1.70;;;1.60;;
46322;SDS011;32044;52.386;13.278;2022-10-16T01:25:53;3.53;;;1.87;;
46322;SDS011;32044;52.386;13.278;2022-10-16T01:28:45;2.22;;;1.80;;
46322;SDS011;32044;52.386;13.278;2022-10-16T01:31:15;4.10;;;2.10;;
46322;SDS011;32044;52.386;13.278;2022-10-16T01:33:47;3.75;;;1.70;;
46322;SDS011;32044;52.386;13.278;2022-10-16T01:36:18;2.40;;;2.03;;
46322;SDS011;32044;52.386;13.278;2022-10-16T01:38:46;3.45;;;1.70;;
46322;SDS011;32044;52.386;13.278;2022-10-16T01:41:14;3.03;;;1.90;;
46322;SDS011;32044;52.386;13.278;2022-10-16T01:43:45;2.58;;;1.50;;
46322;SDS011;32044;52.386;13.278;2022-10-16T01:46:14;4.13;;;2.00;;
46322;SDS011;32044;52.386;13.278;2022-10-16T01:48:42;4.43;;;2.13;;
46322;SDS011;32044;52.386;13.278;2022-10-16T01:51:08;2.08;;;1.90;;
46322;SDS011;32044;52.386;13.278;2022-10-16T01:53:35;2.10;;;1.63;;
46322;SDS011;32044;52.386;13.278;2022-10-16T01:56:02;2.03;;;1.80;;
46322;SDS011;32044;52.386;13.278;2022-10-16T01:58:29;4.55;;;1.70;;
46322;SDS011;32044;52.386;13.278;2022-10-16T02:00:59;2.22;;;1.85;;
46322;SDS011;32044;52.386;13.278;2022-10-16T02:03:24;1.83;;;1.67;;
46322;SDS011;32044;52.386;13.278;2022-10-16T02:05:51;2.10;;;1.90;;
46322;SDS011;32044;52.386;13.278;2022-10-16T02:08:18;2.97;;;1.77;;
46322;SDS011;32044;52.386;13.278;2022-10-16T02:10:44;1.92;;;1.77;;
46322;SDS011;32044;52.386;13.278;2022-10-16T02:13:10;4.30;;;1.80;;
46322;SDS011;32044;52.386;13.278;2022-10-16T02:15:38;1.70;;;1.58;;
46322;SDS011;32044;52.386;13.278;2022-10-16T02:18:04;2.05;;;1.85;;
46322;SDS011;32044;52.386;13.278;2022-10-16T02:20:32;2.00;;;1.80;;
46322;SDS011;32044;52.386;13.278;2022-10-16T02:23:01;2.50;;;1.60;;
46322;SDS011;32044;52.386;13.278;2022-10-16T02:25:31;1.80;;;1.42;;
46322;SDS011;32044;52.386;13.278;2022-10-16T02:28:08;2.10;;;1.70;;
46322;SDS011;32044;52.386;13.278;2022-10-16T02:30:45;3.78;;;1.50;;
46322;SDS011;32044;52.386;13.278;2022-10-16T02:33:13;3.53;;;1.92;;
46322;SDS011;32044;52.386;13.278;2022-10-16T02:35:39;3.67;;;1.58;;
46322;SDS011;32044;52.386;13.278;2022-10-16T02:38:05;2.45;;;1.52;;
46322;SDS011;32044;52.386;13.278;2022-10-16T02:40:31;1.88;;;1.70;;
46322;SDS011;32044;52.386;13.278;2022-10-16T02:42:56;2.33;;;1.67;;
46322;SDS011;32044;52.386;13.278;2022-10-16T02:45:22;3.45;;;1.73;;
46322;SDS011;32044;52.386;13.278;2022-10-16T02:47:48;2.05;;;1.30;;
46322;SDS011;32044;52.386;13.278;2022-10-16T02:50:13;3.15;;;1.60;;
46322;SDS011;32044;52.386;13.278;2022-10-16T02:52:39;1.60;;;1.50;;
46322;SDS011;32044;52.386;13.278;2022-10-16T02:55:04;1.75;;;1.50;;
46322;SDS011;32044;52.386;13.278;2022-10-16T02:57:30;1.85;;;1.55;;
46322;SDS011;32044;52.386;13.278;2022-10-16T02:59:56;1.60;;;1.50;;
46322;SDS011;32044;52.386;13.278;2022-10-16T03:02:21;3.97;;;1.70;;
46322;SDS011;32044;52.386;13.278;2022-10-16T03:04:46;1.50;;;1.40;;
46322;SDS011;32044;52.386;13.278;2022-10-16T03:07:11;1.88;;;1.40;;
46322;SDS011;32044;52.386;13.278;2022-10-16T03:09:37;3.15;;;1.67;;
46322;SDS011;32044;52.386;13.278;2022-10-16T03:12:02;2.40;;;1.52;;
46322;SDS011;32044;52.386;13.278;2022-10-16T03:14:28;2.97;;;1.70;;
46322;SDS011;32044;52.386;13.278;2022-10-16T03:16:53;2.30;;;1.73;;
46322;SDS011;32044;52.386;13.278;2022-10-16T03:19:18;3.38;;;2.00;;
46322;SDS011;32044;52.386;13.278;2022-10-16T03:21:44;2.63;;;1.90;;
46322;SDS011;32044;52.386;13.278;2022-10-16T03:24:10;3.10;;;2.13;;
46322;SDS011;32044;52.386;13.278;2022-10-16T03:26:35;1.70;;;1.58;;
46322;SDS011;32044;52.386;13.278;2022-10-16T03:29:00;1.92;;;1.83;;
46322;SDS011;32044;52.386;13.278;2022-10-16T03:31:28;2.30;;;2.10;;
46322;SDS011;32044;52.386;13.278;2022-10-16T03:33:53;5.95;;;2.20;;
46322;SDS011;32044;52.386;13.278;2022-10-16T03:36:19;2.67;;;2.33;;
46322;SDS011;32044;52.386;13.278;2022-10-16T03:38:44;1.92;;;1.83;;
46322;SDS011;32044;52.386;13.278;2022-10-16T03:41:09;5.30;;;2.05;;
46322;SDS011;32044;52.386;13.278;2022-10-16T03:43:35;3.33;;;2.25;;
46322;SDS011;32044;52.386;13.278;2022-10-16T03:46:00;4.03;;;1.85;;
46322;SDS011;32044;52.386;13.278;2022-10-16T03:48:26;5.90;;;2.35;;
46322;SDS011;32044;52.386;13.278;2022-10-16T03:50:51;2.25;;;2.05;;
46322;SDS011;32044;52.386;13.278;2022-10-16T03:53:16;3.03;;;2.03;;
46322;SDS011;32044;52.386;13.278;2022-10-16T03:55:42;2.55;;;2.15;;
46322;SDS011;32044;52.386;13.278;2022-10-16T03:58:07;2.10;;;2.00;;
46322;SDS011;32044;52.386;13.278;2022-10-16T04:00:32;3.50;;;1.85;;
46322;SDS011;32044;52.386;13.278;2022-10-16T04:02:59;2.67;;;2.10;;
46322;SDS011;32044;52.386;13.278;2022-10-16T04:05:24;2.05;;;1.83;;
46322;SDS011;32044;52.386;13.278;2022-10-16T04:07:49;4.40;;;2.15;;
46322;SDS011;32044;52.386;13.278;2022-10-16T04:10:15;2.45;;;2.15;;
46322;SDS011;32044;52.386;13.278;2022-10-16T04:12:40;3.05;;;1.95;;
46322;SDS011;32044;52.386;13.278;2022-10-16T04:15:05;3.67;;;1.95;;
46322;SDS011;32044;52.386;13.278;2022-10-16T04:17:31;1.75;;;1.65;;
46322;SDS011;32044;52.386;13.278;2022-10-16T04:19:56;3.28;;;2.00;;
46322;SDS011;32044;52.386;13.278;2022-10-16T04:22:22;2.35;;;1.77;;
46322;SDS011;32044;52.386;13.278;2022-10-16T04:24:47;2.50;;;1.83;;
46322;SDS011;32044;52.386;13.278;2022-10-16T04:27:12;2.20;;;1.80;;
46322;SDS011;32044;52.386;13.278;2022-10-16T04:29:37;3.00;;;2.00;;
46322;SDS011;32044;52.386;13.278;2022-10-16T04:32:03;2.22;;;1.80;;
46322;SDS011;32044;52.386;13.278;2022-10-16T04:34:28;1.77;;;1.67;;
46322;SDS011;32044;52.386;13.278;2022-10-16T04:36:53;1.83;;;1.67;;
46322;SDS011;32044;52.386;13.278;2022-10-16T04:39:18;2.05;;;1.80;;
46322;SDS011;32044;52.386;13.278;2022-10-16T04:41:44;2.03;;;1.90;;
46322;SDS011;32044;52.386;13.278;2022-10-16T04:44:09;3.47;;;1.85;;
46322;SDS011;32044;52.386;13.278;2022-10-16T04:46:34;3.22;;;2.35;;
46322;SDS011;32044;52.386;13.278;2022-10-16T04:49:00;2.67;;;2.30;;
46322;SDS011;32044;52.386;13.278;2022-10-16T04:51:25;3.15;;;2.80;;
46322;SDS011;32044;52.386;13.278;2022-10-16T04:53:51;3.28;;;2.97;;
46322;SDS011;32044;52.386;13.278;2022-10-16T04:56:16;2.83;;;2.63;;
46322;SDS011;32044;52.386;13.278;2022-10-16T04:58:41;5.15;;;2.80;;
46322;SDS011;32044;52.386;13.278;2022-10-16T05:01:07;4.90;;;2.88;;
46322;SDS011;32044;52.386;13.278;2022-10-16T05:03:32;5.07;;;3.10;;
46322;SDS011;32044;52.386;13.278;2022-10-16T05:05:57;5.95;;;3.30;;
46322;SDS011;32044;52.386;13.278;2022-10-16T05:08:23;3.78;;;3.40;;
46322;SDS011;32044;52.386;13.278;2022-10-16T05:10:48;6.40;;;3.15;;
46322;SDS011;32044;52.386;13.278;2022-10-16T05:13:13;4.28;;;3.67;;
46322;SDS011;32044;52.386;13.278;2022-10-16T05:15:38;5.65;;;3.63;;
46322;SDS011;32044;52.386;13.278;2022-10-16T05:18:04;6.68;;;4.10;;
46322;SDS011;32044;52.386;13.278;2022-10-16T05:20:29;6.32;;;3.92;;
46322;SDS011;32044;52.386;13.278;2022-10-16T05:22:54;5.00;;;4.20;;
46322;SDS011;32044;52.386;13.278;2022-10-16T05:25:20;6.43;;;3.88;;
46322;SDS011;32044;52.386;13.278;2022-10-16T05:27:48;4.07;;;3.63;;
46322;SDS011;32044;52.386;13.278;2022-10-16T05:30:14;4.13;;;3.72;;
46322;SDS011;32044;52.386;13.278;2022-10-16T05:32:40;5.45;;;4.35;;
46322;SDS011;32044;52.386;13.278;2022-10-16T05:35:05;8.00;;;4.50;;
46322;SDS011;32044;52.386;13.278;2022-10-16T05:37:30;6.10;;;5.07;;
46322;SDS011;32044;52.386;13.278;2022-10-16T05:39:56;6.20;;;4.55;;
46322;SDS011;32044;52.386;13.278;2022-10-16T05:42:21;5.20;;;4.03;;
46322;SDS011;32044;52.386;13.278;2022-10-16T05:44:46;10.52;;;4.93;;
46322;SDS011;32044;52.386;13.278;2022-10-16T05:47:12;5.82;;;4.47;;
46322;SDS011;32044;52.386;13.278;2022-10-16T05:49:37;4.85;;;3.92;;
46322;SDS011;32044;52.386;13.278;2022-10-16T05:52:03;5.07;;;4.60;;
46322;SDS011;32044;52.386;13.278;2022-10-16T05:54:28;6.95;;;4.22;;
46322;SDS011;32044;52.386;13.278;2022-10-16T05:56:53;4.75;;;4.00;;
46322;SDS011;32044;52.386;13.278;2022-10-16T05:59:18;4.78;;;4.03;;
46322;SDS011;32044;52.386;13.278;2022-10-16T06:01:44;6.50;;;4.50;;
46322;SDS011;32044;52.386;13.278;2022-10-16T06:04:09;5.35;;;4.85;;
46322;SDS011;32044;52.386;13.278;2022-10-16T06:06:34;8.00;;;5.20;;
46322;SDS011;32044;52.386;13.278;2022-10-16T06:09:01;6.65;;;4.40;;
46322;SDS011;32044;52.386;13.278;2022-10-16T06:11:28;7.43;;;4.38;;
46322;SDS011;32044;52.386;13.278;2022-10-16T06:13:56;5.60;;;4.20;;
46322;SDS011;32044;52.386;13.278;2022-10-16T06:16:22;4.53;;;4.07;;
46322;SDS011;32044;52.386;13.278;2022-10-16T06:18:50;6.55;;;3.40;;
46322;SDS011;32044;52.386;13.278;2022-10-16T06:21:17;3.42;;;3.13;;
46322;SDS011;32044;52.386;13.278;2022-10-16T06:23:44;4.53;;;3.17;;
46322;SDS011;32044;52.386;13.278;2022-10-16T06:26:14;4.47;;;3.03;;
46322;SDS011;32044;52.386;13.278;2022-10-16T06:28:40;5.43;;;2.78;;
46322;SDS011;32044;52.386;13.278;2022-10-16T06:31:06;2.88;;;2.67;;
46322;SDS011;32044;52.386;13.278;2022-10-16T06:33:33;2.75;;;2.05;;
46322;SDS011;32044;52.386;13.278;2022-10-16T06:36:06;4.22;;;2.60;;
46322;SDS011;32044;52.386;13.278;2022-10-16T06:38:36;2.20;;;1.88;;
46322;SDS011;32044;52.386;13.278;2022-10-16T06:41:01;2.47;;;2.25;;
46322;SDS011;32044;52.386;13.278;2022-10-16T06:43:30;3.00;;;2.17;;
46322;SDS011;32044;52.386;13.278;2022-10-16T06:45:57;3.42;;;2.17;;
46322;SDS011;32044;52.386;13.278;2022-10-16T06:48:23;3.70;;;2.70;;
46322;SDS011;32044;52.386;13.278;2022-10-16T06:50:55;4.70;;;2.40;;
46322;SDS011;32044;52.386;13.278;2022-10-16T06:53:22;4.70;;;2.33;;
46322;SDS011;32044;52.386;13.278;2022-10-16T06:55:47;5.30;;;2.72;;
46322;SDS011;32044;52.386;13.278;2022-10-16T06:58:12;4.05;;;2.78;;
46322;SDS011;32044;52.386;13.278;2022-10-16T07:00:38;4.70;;;3.17;;
46322;SDS011;32044;52.386;13.278;2022-10-16T07:03:03;2.85;;;2.17;;
46322;SDS011;32044;52.386;13.278;2022-10-16T07:05:28;7.07;;;1.88;;
46322;SDS011;32044;52.386;13.278;2022-10-16T07:07:53;3.60;;;1.65;;
46322;SDS011;32044;52.386;13.278;2022-10-16T07:10:19;5.95;;;1.55;;
46322;SDS011;32044;52.386;13.278;2022-10-16T07:12:44;2.72;;;1.42;;
46322;SDS011;32044;52.386;13.278;2022-10-16T07:15:10;4.43;;;1.52;;
46322;SDS011;32044;52.386;13.278;2022-10-16T07:17:35;4.32;;;2.03;;
46322;SDS011;32044;52.386;13.278;2022-10-16T07:20:01;3.38;;;1.30;;
46322;SDS011;32044;52.386;13.278;2022-10-16T07:22:27;2.35;;;1.60;;
46322;SDS011;32044;52.386;13.278;2022-10-16T07:24:53;2.38;;;1.65;;
46322;SDS011;32044;52.386;13.278;2022-10-16T07:27:18;1.77;;;1.38;;
46322;SDS011;32044;52.386;13.278;2022-10-16T07:29:43;2.10;;;1.42;;
46322;SDS011;32044;52.386;13.278;2022-10-16T07:32:09;1.58;;;1.20;;
46322;SDS011;32044;52.386;13.278;2022-10-16T07:34:34;1.80;;;1.30;;
46322;SDS011;32044;52.386;13.278;2022-10-16T07:36:59;1.55;;;1.10;;
46322;SDS011;32044;52.386;13.278;2022-10-16T07:39:25;3.88;;;1.52;;
46322;SDS011;32044;52.386;13.278;2022-10-16T07:41:50;1.40;;;1.30;;
46322;SDS011;32044;52.386;13.278;2022-10-16T07:44:15;0.90;;;0.90;;
46322;SDS011;32044;52.386;13.278;2022-10-16T07:46:41;1.85;;;0.90;;
46322;SDS011;32044;52.386;13.278;2022-10-16T07:49:06;1.13;;;0.95;;
46322;SDS011;32044;52.386;13.278;2022-10-16T07:51:31;5.72;;;1.10;;
46322;SDS011;32044;52.386;13.278;2022-10-16T07:53:57;1.35;;;1.20;;
46322;SDS011;32044;52.386;13.278;2022-10-16T07:56:22;1.63;;;1.05;;
46322;SDS011;32044;52.386;13.278;2022-10-16T07:58:48;1.17;;;1.08;;
46322;SDS011;32044;52.386;13.278;2022-10-16T08:01:15;1.02;;;1.00;;
46322;SDS011;32044;52.386;13.278;2022-10-16T08:03:41;2.55;;;1.20;;
46322;SDS011;32044;52.386;13.278;2022-10-16T08:06:07;3.03;;;1.30;;
46322;SDS011;32044;52.386;13.278;2022-10-16T08:08:32;1.23;;;1.13;;
46322;SDS011;32044;52.386;13.278;2022-10-16T08:10:58;0.82;;;0.80;;
46322;SDS011;32044;52.386;13.278;2022-10-16T08:13:23;1.17;;;0.98;;
46322;SDS011;32044;52.386;13.278;2022-10-16T08:15:48;2.28;;;1.30;;
46322;SDS011;32044;52.386;13.278;2022-10-16T08:18:14;2.40;;;0.90;;
46322;SDS011;32044;52.386;13.278;2022-10-16T08:20:41;3.42;;;1.10;;
46322;SDS011;32044;52.386;13.278;2022-10-16T08:23:06;1.52;;;1.08;;
46322;SDS011;32044;52.386;13.278;2022-10-16T08:25:34;3.47;;;1.30;;
46322;SDS011;32044;52.386;13.278;2022-10-16T08:28:00;1.55;;;1.10;;
46322;SDS011;32044;52.386;13.278;2022-10-16T08:30:28;2.60;;;0.80;;
46322;SDS011;32044;52.386;13.278;2022-10-16T08:32:53;2.90;;;1.00;;
46322;SDS011;32044;52.386;13.278;2022-10-16T08:35:18;0.88;;;0.88;;
46322;SDS011;32044;52.386;13.278;2022-10-16T08:37:44;0.80;;;0.80;;
46322;SDS011;32044;52.386;13.278;2022-10-16T08:40:16;1.90;;;0.90;;
46322;SDS011;32044;52.386;13.278;2022-10-16T08:50:52;1.20;;;1.10;;
46322;SDS011;32044;52.386;13.278;2022-10-16T08:53:26;4.35;;;0.93;;
46322;SDS011;32044;52.386;13.278;2022-10-16T08:55:53;3.63;;;1.13;;
46322;SDS011;32044;52.386;13.278;2022-10-16T08:58:19;4.78;;;1.20;;
46322;SDS011;32044;52.386;13.278;2022-10-16T09:00:55;1.80;;;0.80;;
46322;SDS011;32044;52.386;13.278;2022-10-16T09:03:23;1.05;;;1.00;;
46322;SDS011;32044;52.386;13.278;2022-10-16T09:08:36;4.13;;;1.17;;
46322;SDS011;32044;52.386;13.278;2022-10-16T09:11:30;1.00;;;0.88;;
46322;SDS011;32044;52.386;13.278;2022-10-16T09:17:03;0.95;;;0.85;;
46322;SDS011;32044;52.386;13.278;2022-10-16T09:19:53;2.42;;;1.05;;
46322;SDS011;32044;52.386;13.278;2022-10-16T09:22:38;2.13;;;0.95;;
46322;SDS011;32044;52.386;13.278;2022-10-16T09:25:11;2.03;;;1.02;;
46322;SDS011;32044;52.386;13.278;2022-10-16T09:27:40;1.75;;;0.70;;
46322;SDS011;32044;52.386;13.278;2022-10-16T09:30:11;2.67;;;1.17;;
46322;SDS011;32044;52.386;13.278;2022-10-16T09:32:38;1.17;;;0.80;;
46322;SDS011;32044;52.386;13.278;2022-10-16T09:35:04;1.73;;;0.90;;
46322;SDS011;32044;52.386;13.278;2022-10-16T09:37:36;3.40;;;1.20;;
46322;SDS011;32044;52.386;13.278;2022-10-16T09:40:01;2.40;;;0.85;;
46322;SDS011;32044;52.386;13.278;2022-10-16T09:42:30;1.95;;;0.90;;
46322;SDS011;32044;52.386;13.278;2022-10-16T09:44:56;1.20;;;1.05;;
46322;SDS011;32044;52.386;13.278;2022-10-16T09:47:26;5.70;;;1.00;;
46322;SDS011;32044;52.386;13.278;2022-10-16T09:49:56;1.92;;;1.10;;
46322;SDS011;32044;52.386;13.278;2022-10-16T09:52:27;1.15;;;0.77;;
46322;SDS011;32044;52.386;13.278;2022-10-16T09:54:54;3.70;;;0.93;;
46322;SDS011;32044;52.386;13.278;2022-10-16T09:57:20;7.10;;;0.98;;
46322;SDS011;32044;52.386;13.278;2022-10-16T09:59:53;2.17;;;0.90;;
46322;SDS011;32044;52.386;13.278;2022-10-16T10:02:23;2.08;;;0.73;;
46322;SDS011;32044;52.386;13.278;2022-10-16T10:04:56;2.45;;;0.70;;
46322;SDS011;32044;52.386;13.278;2022-10-16T10:07:42;1.65;;;1.05;;
46322;SDS011;32044;52.386;13.278;2022-10-16T10:10:21;0.98;;;0.52;;
46322;SDS011;32044;52.386;13.278;2022-10-16T10:12:49;1.15;;;0.63;;
46322;SDS011;32044;52.386;13.278;2022-10-16T10:15:14;2.08;;;0.77;;
46322;SDS011;32044;52.386;13.278;2022-10-16T10:17:53;1.48;;;0.80;;
46322;SDS011;32044;52.386;13.278;2022-10-16T10:20:29;1.70;;;0.80;;
46322;SDS011;32044;52.386;13.278;2022-10-16T10:22:57;2.83;;;0.80;;
46322;SDS011;32044;52.386;13.278;2022-10-16T10:25:35;2.30;;;0.80;;
46322;SDS011;32044;52.386;13.278;2022-10-16T10:36:14;1.38;;;0.68;;
46322;SDS011;32044;52.386;13.278;2022-10-16T10:41:48;2.25;;;0.68;;
46322;SDS011;32044;52.386;13.278;2022-10-16T10:47:17;1.15;;;0.77;;
46322;SDS011;32044;52.386;13.278;2022-10-16T10:50:03;4.43;;;1.00;;
46322;SDS011;32044;52.386;13.278;2022-10-16T10:52:35;1.50;;;0.82;;
46322;SDS011;32044;52.386;13.278;2022-10-16T10:58:00;3.45;;;0.80;;
46322;SDS011;32044;52.386;13.278;2022-10-16T11:00:50;4.95;;;0.95;;
46322;SDS011;32044;52.386;13.278;2022-10-16T11:06:28;2.47;;;0.70;;
46322;SDS011;32044;52.386;13.278;2022-10-16T11:11:45;3.13;;;0.75;;
46322;SDS011;32044;52.386;13.278;2022-10-16T11:14:39;2.05;;;0.82;;
46322;SDS011;32044;52.386;13.278;2022-10-16T11:17:08;2.90;;;0.80;;
46322;SDS011;32044;52.386;13.278;2022-10-16T11:19:42;0.82;;;0.50;;
46322;SDS011;32044;52.386;13.278;2022-10-16T11:22:24;2.40;;;0.75;;
46322;SDS011;32044;52.386;13.278;2022-10-16T11:25:04;3.28;;;0.60;;
46322;SDS011;32044;52.386;13.278;2022-10-16T11:27:48;0.73;;;0.65;;
46322;SDS011;32044;52.386;13.278;2022-10-16T11:30:20;1.13;;;0.70;;
46322;SDS011;32044;52.386;13.278;2022-10-16T11:35:32;0.57;;;0.57;;
46322;SDS011;32044;52.386;13.278;2022-10-16T11:38:03;1.02;;;0.43;;
46322;SDS011;32044;52.386;13.278;2022-10-16T11:40:42;1.58;;;0.70;;
46322;SDS011;32044;52.386;13.278;2022-10-16T11:43:17;1.25;;;0.98;;
46322;SDS011;32044;52.386;13.278;2022-10-16T11:45:51;1.58;;;1.23;;
46322;SDS011;32044;52.386;13.278;2022-10-16T11:48:26;1.75;;;1.00;;
46322;SDS011;32044;52.386;13.278;2022-10-16T11:50:57;2.47;;;0.98;;
46322;SDS011;32044;52.386;13.278;2022-10-16T11:53:50;2.10;;;0.98;;
46322;SDS011;32044;52.386;13.278;2022-10-16T11:56:20;3.22;;;1.85;;
46322;SDS011;32044;52.386;13.278;2022-10-16T11:59:06;2.22;;;1.90;;
46322;SDS011;32044;52.386;13.278;2022-10-16T12:01:38;4.60;;;1.40;;
46322;SDS011;32044;52.386;13.278;2022-10-16T12:09:37;0.50;;;0.50;;
46322;SDS011;32044;52.386;13.278;2022-10-16T12:12:04;1.17;;;0.50;;
46322;SDS011;32044;52.386;13.278;2022-10-16T12:17:02;0.70;;;0.40;;
46322;SDS011;32044;52.386;13.278;2022-10-16T12:19:57;3.72;;;0.55;;
46322;SDS011;32044;52.386;13.278;2022-10-16T12:22:24;1.25;;;0.50;;
46322;SDS011;32044;52.386;13.278;2022-10-16T12:24:52;0.88;;;0.60;;
46322;SDS011;32044;52.386;13.278;2022-10-16T12:27:28;2.63;;;0.68;;
46322;SDS011;32044;52.386;13.278;2022-10-16T12:29:55;0.60;;;0.60;;
46322;SDS011;32044;52.386;13.278;2022-10-16T12:34:52;4.38;;;0.88;;
46322;SDS011;32044;52.386;13.278;2022-10-16T12:37:22;0.63;;;0.57;;
46322;SDS011;32044;52.386;13.278;2022-10-16T12:39:49;1.10;;;0.50;;
46322;SDS011;32044;52.386;13.278;2022-10-16T12:42:21;2.40;;;0.47;;
46322;SDS011;32044;52.386;13.278;2022-10-16T12:44:52;0.30;;;0.30;;
46322;SDS011;32044;52.386;13.278;2022-10-16T12:47:20;4.40;;;0.63;;
46322;SDS011;32044;52.386;13.278;2022-10-16T12:50:00;1.08;;;0.55;;
46322;SDS011;32044;52.386;13.278;2022-10-16T12:52:35;2.05;;;0.75;;
46322;SDS011;32044;52.386;13.278;2022-10-16T12:55:04;0.50;;;0.50;;
46322;SDS011;32044;52.386;13.278;2022-10-16T12:57:44;1.00;;;0.90;;
46322;SDS011;32044;52.386;13.278;2022-10-16T13:00:32;4.97;;;0.70;;
46322;SDS011;32044;52.386;13.278;2022-10-16T13:03:08;1.05;;;0.50;;
46322;SDS011;32044;52.386;13.278;2022-10-16T13:06:03;2.25;;;0.50;;
46322;SDS011;32044;52.386;13.278;2022-10-16T13:08:45;0.32;;;0.32;;
46322;SDS011;32044;52.386;13.278;2022-10-16T13:11:20;1.65;;;0.40;;
46322;SDS011;32044;52.386;13.278;2022-10-16T13:14:18;1.73;;;0.40;;
46322;SDS011;32044;52.386;13.278;2022-10-16T13:19:59;0.50;;;0.32;;
46322;SDS011;32044;52.386;13.278;2022-10-16T13:22:31;2.30;;;0.70;;
46322;SDS011;32044;52.386;13.278;2022-10-16T13:25:16;5.85;;;0.65;;
46322;SDS011;32044;52.386;13.278;2022-10-16T13:27:59;0.77;;;0.70;;
46322;SDS011;32044;52.386;13.278;2022-10-16T13:30:26;1.23;;;0.70;;
46322;SDS011;32044;52.386;13.278;2022-10-16T13:35:46;0.70;;;0.50;;
46322;SDS011;32044;52.386;13.278;2022-10-16T13:38:14;1.00;;;0.50;;
46322;SDS011;32044;52.386;13.278;2022-10-16T13:40:48;1.25;;;0.30;;
46322;SDS011;32044;52.386;13.278;2022-10-16T13:46:06;0.55;;;0.40;;
46322;SDS011;32044;52.386;13.278;2022-10-16T13:48:37;1.05;;;0.60;;
46322;SDS011;32044;52.386;13.278;2022-10-16T13:53:35;0.63;;;0.50;;
46322;SDS011;32044;52.386;13.278;2022-10-16T13:56:01;0.90;;;0.40;;
46322;SDS011;32044;52.386;13.278;2022-10-16T13:58:28;0.60;;;0.40;;
46322;SDS011;32044;52.386;13.278;2022-10-16T14:00:58;1.27;;;0.40;;
46322;SDS011;32044;52.386;13.278;2022-10-16T14:03:25;0.52;;;0.40;;
46322;SDS011;32044;52.386;13.278;2022-10-16T14:05:55;2.35;;;0.60;;
46322;SDS011;32044;52.386;13.278;2022-10-16T14:08:23;0.70;;;0.70;;
46322;SDS011;32044;52.386;13.278;2022-10-16T14:10:50;0.60;;;0.60;;
46322;SDS011;32044;52.386;13.278;2022-10-16T14:13:18;2.15;;;0.68;;
46322;SDS011;32044;52.386;13.278;2022-10-16T14:15:49;0.60;;;0.50;;
46322;SDS011;32044;52.386;13.278;2022-10-16T14:18:18;0.80;;;0.50;;
46322;SDS011;32044;52.386;13.278;2022-10-16T14:23:19;3.73;;;0.60;;
46322;SDS011;32044;52.386;13.278;2022-10-16T14:28:34;0.95;;;0.57;;
46322;SDS011;32044;52.386;13.278;2022-10-16T14:31:00;1.00;;;0.65;;
46322;SDS011;32044;52.386;13.278;2022-10-16T14:35:59;1.45;;;0.60;;
46322;SDS011;32044;52.386;13.278;2022-10-16T14:38:40;1.88;;;0.50;;
46322;SDS011;32044;52.386;13.278;2022-10-16T14:41:07;3.10;;;0.65;;
46322;SDS011;32044;52.386;13.278;2022-10-16T14:43:34;1.35;;;0.40;;
46322;SDS011;32044;52.386;13.278;2022-10-16T14:46:02;0.80;;;0.68;;
46322;SDS011;32044;52.386;13.278;2022-10-16T14:48:29;1.73;;;0.73;;
46322;SDS011;32044;52.386;13.278;2022-10-16T14:50:54;0.85;;;0.52;;
46322;SDS011;32044;52.386;13.278;2022-10-16T14:53:20;1.17;;;0.55;;
46322;SDS011;32044;52.386;13.278;2022-10-16T14:55:45;0.47;;;0.47;;
46322;SDS011;32044;52.386;13.278;2022-10-16T14:58:17;1.17;;;0.50;;
46322;SDS011;32044;52.386;13.278;2022-10-16T15:00:45;1.92;;;0.50;;
46322;SDS011;32044;52.386;13.278;2022-10-16T15:03:10;1.15;;;0.40;;
46322;SDS011;32044;52.386;13.278;2022-10-16T15:05:36;1.08;;;0.70;;
46322;SDS011;32044;52.386;13.278;2022-10-16T15:08:01;0.77;;;0.65;;
46322;SDS011;32044;52.386;13.278;2022-10-16T15:10:27;2.67;;;0.50;;
46322;SDS011;32044;52.386;13.278;2022-10-16T15:12:53;2.45;;;0.50;;
46322;SDS011;32044;52.386;13.278;2022-10-16T15:15:34;0.60;;;0.60;;
46322;SDS011;32044;52.386;13.278;2022-10-16T15:18:00;0.60;;;0.55;;
46322;SDS011;32044;52.386;13.278;2022-10-16T15:20:35;1.60;;;0.70;;
46322;SDS011;32044;52.386;13.278;2022-10-16T15:23:03;1.95;;;0.55;;
46322;SDS011;32044;52.386;13.278;2022-10-16T15:25:33;1.48;;;0.70;;
46322;SDS011;32044;52.386;13.278;2022-10-16T15:28:04;0.73;;;0.55;;
46322;SDS011;32044;52.386;13.278;2022-10-16T15:30:30;0.77;;;0.52;;
46322;SDS011;32044;52.386;13.278;2022-10-16T15:32:56;0.82;;;0.73;;
46322;SDS011;32044;52.386;13.278;2022-10-16T15:35:21;1.15;;;0.77;;
46322;SDS011;32044;52.386;13.278;2022-10-16T15:37:47;1.00;;;0.80;;
46322;SDS011;32044;52.386;13.278;2022-10-16T15:40:13;1.00;;;0.88;;
46322;SDS011;32044;52.386;13.278;2022-10-16T15:42:39;1.50;;;0.90;;
46322;SDS011;32044;52.386;13.278;2022-10-16T15:45:04;1.70;;;0.93;;
46322;SDS011;32044;52.386;13.278;2022-10-16T15:47:31;1.30;;;0.77;;
46322;SDS011;32044;52.386;13.278;2022-10-16T15:49:56;0.75;;;0.73;;
46322;SDS011;32044;52.386;13.278;2022-10-16T15:52:21;1.13;;;0.75;;
46322;SDS011;32044;52.386;13.278;2022-10-16T15:54:46;2.10;;;0.93;;
46322;SDS011;32044;52.386;13.278;2022-10-16T15:57:12;1.80;;;0.75;;
46322;SDS011;32044;52.386;13.278;2022-10-16T15:59:37;1.08;;;0.98;;